Time;durP1;ratioP1;P1;durP2;ratioP2;P2;SDS_P1;SDS_P2;PMS_P1;PMS_P2;Temp;Humidity;BMP_temperature;BMP_pressure;BME280_temperature;BME280_humidity;BME280_pressure;Samples;Min_cycle;Max_cycle;Signal;HPM_P1;HPM_P2
2021/10/21 00:00:07;;;;;;;5.50;3.00;;;;;;;14.42;78.59;97451.88;5053640;28;20135;-62
2021/10/21 00:02:57;;;;;;;4.63;2.50;;;;;;;14.38;78.80;97456.38;5038133;28;20064;-62
2021/10/21 00:05:46;;;;;;;6.88;3.08;;;;;;;14.37;78.51;97480.72;5038459;28;20142;-62
2021/10/21 00:08:39;;;;;;;6.10;3.00;;;;;;;14.37;78.62;97462.50;5053564;28;20094;-62
2021/10/21 00:11:27;;;;;;;3.03;2.40;;;;;;;14.35;78.59;97490.38;5038978;28;20071;-62
2021/10/21 00:14:11;;;;;;;5.65;2.65;;;;;;;14.34;78.61;97482.63;5053588;28;20048;-62
2021/10/21 00:17:00;;;;;;;4.15;2.10;;;;;;;14.29;78.21;97486.25;5038179;28;20098;-62
2021/10/21 00:19:52;;;;;;;5.20;2.17;;;;;;;14.26;78.22;97503.78;5038118;28;20067;-63
2021/10/21 00:22:39;;;;;;;5.80;2.05;;;;;;;14.20;78.08;97504.88;5038205;28;20115;-62
2021/10/21 00:25:27;;;;;;;4.47;2.13;;;;;;;14.15;77.87;97553.66;5053631;28;20137;-62
2021/10/21 00:28:14;;;;;;;9.00;2.88;;;;;;;14.13;77.68;97483.41;5053740;28;20110;-62
2021/10/21 00:31:01;;;;;;;6.00;2.22;;;;;;;14.09;77.72;97481.00;5038175;28;20110;-62
2021/10/21 00:33:51;;;;;;;3.60;2.00;;;;;;;14.06;77.36;97488.94;5053300;28;20048;-62
2021/10/21 00:36:36;;;;;;;6.70;1.92;;;;;;;14.03;77.51;97483.84;5053625;28;20075;-62
2021/10/21 00:39:20;;;;;;;2.33;1.83;;;;;;;14.01;77.55;97502.97;5053007;28;20580;-62
2021/10/21 00:42:12;;;;;;;5.47;1.90;;;;;;;14.00;77.48;97496.06;5053089;28;20171;-62
2021/10/21 00:44:59;;;;;;;3.88;1.77;;;;;;;13.97;77.50;97483.16;5037933;28;20095;-62
2021/10/21 00:47:46;;;;;;;6.03;2.15;;;;;;;13.96;77.37;97502.28;5038573;28;20392;-62
2021/10/21 00:50:31;;;;;;;4.80;2.10;;;;;;;13.95;77.37;97497.97;5038191;28;20044;-62
2021/10/21 00:53:21;;;;;;;4.90;1.75;;;;;;;13.93;77.50;97468.59;5053272;28;20102;-62
2021/10/21 00:56:14;;;;;;;5.60;2.40;;;;;;;13.90;77.55;97502.53;5038227;28;20040;-63
2021/10/21 00:59:07;;;;;;;4.05;2.13;;;;;;;13.90;77.17;97483.44;5053391;28;20395;-62
2021/10/21 01:01:53;;;;;;;6.90;2.33;;;;;;;13.84;77.12;97464.56;5052981;28;20056;-63
2021/10/21 01:04:47;;;;;;;3.38;2.13;;;;;;;13.79;77.04;97458.69;5037795;28;20407;-63
2021/10/21 01:07:39;;;;;;;4.15;1.83;;;;;;;13.73;76.55;97484.94;5040479;28;20051;-62
2021/10/21 01:10:31;;;;;;;4.82;1.70;;;;;;;13.69;76.15;97470.38;5056982;28;20446;-63
2021/10/21 01:13:16;;;;;;;4.80;1.80;;;;;;;13.62;76.25;97493.19;5041813;28;20514;-62
2021/10/21 01:16:11;;;;;;;;;;;;;;;13.57;75.90;97468.19;5041925;28;20039;-62
2021/10/21 01:19:03;;;;;;;7.47;2.50;;;;;;;13.51;76.20;97459.75;5041882;28;19919;-62
2021/10/21 01:21:49;;;;;;;6.28;1.75;;;;;;;13.52;76.14;97455.38;5056819;28;20059;-62
2021/10/21 01:24:36;;;;;;;5.70;1.88;;;;;;;13.48;76.00;97453.78;5041795;28;20044;-62
2021/10/21 01:27:20;;;;;;;8.25;1.70;;;;;;;13.43;75.73;97464.34;5041501;28;20095;-62
2021/10/21 01:30:19;;;;;;;5.47;2.08;;;;;;;13.40;75.83;97457.53;5041733;28;20098;-62
2021/10/21 01:33:06;;;;;;;8.23;2.92;;;;;;;13.37;75.66;97452.41;5041278;28;20103;-62
2021/10/21 01:35:50;;;;;;;13.48;2.70;;;;;;;13.34;75.70;97455.09;5041854;28;20458;-62
2021/10/21 01:38:39;;;;;;;4.60;2.35;;;;;;;13.32;75.20;97459.50;5040984;28;20051;-63
2021/10/21 01:41:23;;;;;;;10.07;3.38;;;;;;;13.32;75.50;97498.53;5041036;28;20056;-62
2021/10/21 01:44:15;;;;;;;9.73;2.45;;;;;;;13.31;75.29;97447.44;5041206;28;20048;-63
2021/10/21 01:47:05;;;;;;;7.82;1.95;;;;;;;13.30;75.58;97447.47;5040735;28;20098;-63
2021/10/21 01:49:53;;;;;;;6.78;2.22;;;;;;;13.26;75.73;97444.16;5040821;28;20052;-62
2021/10/21 01:52:47;;;;;;;4.90;1.92;;;;;;;13.23;75.52;97468.53;5041092;28;20088;-63
2021/10/21 01:55:42;;;;;;;5.53;1.67;;;;;;;13.23;75.35;97439.06;5040804;28;20540;-63
2021/10/21 01:58:32;;;;;;;10.27;2.83;;;;;;;13.24;75.55;97423.38;5041305;28;20424;-62
2021/10/21 02:01:19;;;;;;;8.90;2.28;;;;;;;13.24;75.92;97422.53;5040965;28;20178;-62
2021/10/21 02:04:06;;;;;;;10.32;2.58;;;;;;;13.20;75.41;97419.22;5041083;28;20055;-62
2021/10/21 02:06:58;;;;;;;5.82;1.92;;;;;;;13.15;75.52;97431.53;5055793;28;20115;-62
2021/10/21 02:09:43;;;;;;;6.82;2.70;;;;;;;13.17;75.85;97439.25;5040519;28;20091;-62
2021/10/21 02:12:32;;;;;;;6.65;1.98;;;;;;;13.17;75.76;97408.06;5040615;28;20056;-63
2021/10/21 02:15:16;;;;;;;10.07;2.13;;;;;;;13.17;75.64;97413.25;5040321;28;20067;-62
2021/10/21 02:18:00;;;;;;;9.30;2.65;;;;;;;13.16;75.79;97406.34;5039553;28;20067;-62
2021/10/21 02:20:52;;;;;;;9.98;2.67;;;;;;;13.15;75.41;97394.28;5055904;28;20048;-62
2021/10/21 02:23:45;;;;;;;8.75;1.95;;;;;;;13.12;75.33;97394.41;5039971;28;20114;-63
2021/10/21 02:26:32;;;;;;;6.88;2.90;;;;;;;13.10;75.57;97386.63;5040507;28;20051;-63
2021/10/21 02:29:25;;;;;;;10.93;2.75;;;;;;;13.09;74.95;97374.53;5055277;28;20514;-63
2021/10/21 02:32:14;;;;;;;8.35;2.75;;;;;;;13.07;75.37;97381.56;5040533;28;20047;-63
2021/10/21 02:35:01;;;;;;;7.15;2.20;;;;;;;13.05;75.11;97376.41;5039781;28;20565;-63
2021/10/21 02:37:45;;;;;;;6.78;2.15;;;;;;;13.02;75.34;97360.09;5040711;28;20525;-63
2021/10/21 02:40:29;;;;;;;6.72;2.05;;;;;;;13.01;75.21;97351.41;5055123;28;20056;-62
2021/10/21 02:43:13;;;;;;;8.15;2.08;;;;;;;13.02;75.17;97375.69;5040274;28;20044;-63
2021/10/21 02:46:00;;;;;;;7.95;2.38;;;;;;;12.99;75.01;97348.06;5040328;28;20055;-62
2021/10/21 02:48:53;;;;;;;9.15;2.53;;;;;;;12.97;74.93;97356.78;5039939;28;20063;-63
2021/10/21 02:51:45;;;;;;;7.95;2.17;;;;;;;12.99;75.25;97349.78;5039983;28;20468;-62
2021/10/21 02:54:35;;;;;;;5.90;2.15;;;;;;;12.94;75.14;97345.59;5039975;28;20052;-63
2021/10/21 02:57:27;;;;;;;11.00;2.95;;;;;;;12.93;74.71;97353.47;5039727;28;20052;-62
2021/10/21 03:00:14;;;;;;;9.02;3.13;;;;;;;12.90;75.15;97353.56;5039273;28;20095;-63
2021/10/21 03:02:58;;;;;;;8.80;2.03;;;;;;;12.92;75.00;97373.41;5039592;28;20107;-63
2021/10/21 03:05:44;;;;;;;8.57;2.42;;;;;;;12.90;74.96;97341.44;5054584;28;20063;-63
2021/10/21 03:08:31;;;;;;;7.40;1.95;;;;;;;12.90;75.00;97364.84;5039952;28;20111;-62
2021/10/21 03:11:22;;;;;;;9.38;2.63;;;;;;;12.88;74.92;97340.63;5039682;28;20110;-62
2021/10/21 03:14:06;;;;;;;6.72;2.15;;;;;;;12.83;74.88;97352.94;5039828;28;20102;-62
2021/10/21 03:16:53;;;;;;;8.85;2.83;;;;;;;12.84;75.13;97351.22;5054503;28;20047;-63
2021/10/21 03:19:39;;;;;;;12.48;3.45;;;;;;;12.84;74.79;97343.41;5054129;28;20048;-62
2021/10/21 03:22:32;;;;;;;6.30;2.08;;;;;;;12.85;74.94;97345.09;5054472;28;20044;-63
2021/10/21 03:25:21;;;;;;;8.90;2.10;;;;;;;12.83;74.72;97346.91;5039079;28;20136;-62
2021/10/21 03:28:05;;;;;;;10.55;2.17;;;;;;;12.85;74.71;97371.06;5039615;28;20124;-63
2021/10/21 03:30:52;;;;;;;7.13;1.92;;;;;;;12.83;74.69;97354.72;5053906;28;20099;-62
2021/10/21 03:33:36;;;;;;;6.38;2.22;;;;;;;12.86;74.70;97358.03;5039030;28;20107;-62
2021/10/21 03:36:23;;;;;;;12.13;2.20;;;;;;;12.85;74.72;97371.06;5039195;28;20438;-62
2021/10/21 03:39:14;;;;;;;7.88;2.30;;;;;;;12.79;74.58;97380.81;5039277;28;20075;-63
2021/10/21 03:42:01;;;;;;;4.72;1.80;;;;;;;12.77;74.77;97358.34;5039101;28;20051;-62
2021/10/21 03:44:49;;;;;;;7.32;2.22;;;;;;;12.79;75.03;97385.13;5053927;28;20588;-63
2021/10/21 03:47:36;;;;;;;9.32;2.90;;;;;;;12.79;74.73;97387.75;5054340;28;20144;-62
2021/10/21 03:50:23;;;;;;;5.03;2.03;;;;;;;12.77;74.77;97380.00;5053992;28;20043;-62
2021/10/21 03:53:09;;;;;;;5.90;2.33;;;;;;;12.78;74.63;97392.09;5038909;28;20048;-62
2021/10/21 03:55:54;;;;;;;5.55;1.95;;;;;;;12.75;75.15;97367.97;5053878;28;20052;-63
2021/10/21 03:58:41;;;;;;;7.50;1.90;;;;;;;12.74;74.98;97389.69;5038893;28;20075;-63
2021/10/21 04:01:34;;;;;;;4.55;1.63;;;;;;;12.75;74.92;97397.41;5038626;28;20123;-63
2021/10/21 04:04:23;;;;;;;6.10;1.55;;;;;;;12.75;75.05;97407.78;5038991;28;20111;-62
2021/10/21 04:07:16;;;;;;;4.85;2.17;;;;;;;12.75;75.27;97410.41;5038461;28;20459;-63
2021/10/21 04:10:06;;;;;;;4.13;1.70;;;;;;;12.73;75.42;97424.34;5038857;28;20091;-62
2021/10/21 04:12:53;;;;;;;3.15;1.52;;;;;;;12.74;75.11;97434.69;5038363;28;20459;-62
2021/10/21 04:15:43;;;;;;;6.45;1.70;;;;;;;12.71;75.41;97433.94;5053574;28;20056;-63
2021/10/21 04:18:35;;;;;;;6.57;1.95;;;;;;;12.65;75.19;97437.59;5038707;28;20051;-63
2021/10/21 04:21:22;;;;;;;5.32;2.30;;;;;;;12.66;75.37;97454.91;5038157;28;20096;-63
2021/10/21 04:24:12;;;;;;;2.75;1.35;;;;;;;12.66;75.57;97490.41;5053454;28;20124;-63
2021/10/21 04:27:04;;;;;;;3.33;1.70;;;;;;;12.65;75.33;97479.19;5038507;28;20553;-63
2021/10/21 04:29:59;;;;;;;4.40;1.40;;;;;;;12.68;75.35;97476.50;5038390;28;20048;-62
2021/10/21 04:32:49;;;;;;;1.48;1.27;;;;;;;12.64;75.45;97496.50;5052991;28;20183;-62
2021/10/21 04:35:33;;;;;;;2.58;1.45;;;;;;;12.63;75.79;97487.00;5038592;28;20051;-63
2021/10/21 04:38:18;;;;;;;1.75;1.45;;;;;;;12.62;75.72;97528.66;5038088;28;20047;-62
2021/10/21 04:41:08;;;;;;;3.95;1.60;;;;;;;12.60;75.50;97541.69;5053188;28;20534;-62
2021/10/21 04:43:55;;;;;;;3.67;1.88;;;;;;;12.59;75.55;97555.59;5042463;28;20123;-63
2021/10/21 04:46:50;;;;;;;3.85;1.25;;;;;;;12.61;75.72;97568.53;5042489;28;20055;-63
2021/10/21 04:49:37;;;;;;;3.53;1.65;;;;;;;12.60;75.84;97604.06;5057572;28;20175;-63
2021/10/21 04:52:27;;;;;;;6.18;1.58;;;;;;;12.62;75.71;97615.22;5042077;28;20182;-62
2021/10/21 04:55:26;;;;;;;4.55;1.52;;;;;;;12.66;75.62;97661.91;5042058;28;20518;-62
2021/10/21 04:58:18;;;;;;;2.40;1.50;;;;;;;12.60;75.52;97673.34;5042408;28;20052;-62
2021/10/21 05:01:02;;;;;;;6.22;1.70;;;;;;;12.55;75.54;97681.28;5042143;28;20095;-62
2021/10/21 05:03:46;;;;;;;5.07;1.48;;;;;;;12.55;75.42;97704.66;5041758;28;20047;-63
2021/10/21 05:06:41;;;;;;;1.48;1.30;;;;;;;12.57;75.15;97741.00;5041900;28;20098;-62
2021/10/21 05:09:36;;;;;;;4.68;1.83;;;;;;;12.55;75.51;97753.16;5041964;28;20044;-62
2021/10/21 05:12:23;;;;;;;3.72;1.60;;;;;;;12.52;75.22;97800.03;5056890;28;20048;-62
2021/10/21 05:15:18;;;;;;;7.28;2.47;;;;;;;12.46;75.21;97795.84;5041721;28;20530;-63
2021/10/21 05:18:15;;;;;;;6.53;2.28;;;;;;;12.46;75.08;97814.03;5056327;28;20106;-62
2021/10/21 05:21:08;;;;;;;7.38;1.88;;;;;;;12.42;74.86;97844.44;5056815;28;20052;-62
2021/10/21 05:23:55;;;;;;;4.95;1.85;;;;;;;12.42;75.24;97846.19;5056779;28;20047;-62
2021/10/21 05:26:39;;;;;;;8.07;2.10;;;;;;;12.41;75.21;97873.06;5041791;28;20068;-63
2021/10/21 05:29:35;;;;;;;6.55;2.22;;;;;;;12.41;75.17;97892.09;5056826;28;20044;-62
2021/10/21 05:32:22;;;;;;;5.70;2.15;;;;;;;12.41;75.27;97923.25;5056356;28;20507;-62
2021/10/21 05:35:15;;;;;;;5.45;2.30;;;;;;;12.44;74.99;97949.16;5041215;28;20094;-62
2021/10/21 05:38:09;;;;;;;11.50;1.88;;;;;;;12.36;75.15;97966.72;5056158;28;20090;-62
2021/10/21 05:40:59;;;;;;;6.47;2.00;;;;;;;12.38;75.35;97980.47;5056637;28;20052;-63
2021/10/21 05:43:52;;;;;;;6.15;2.05;;;;;;;12.34;74.96;97994.47;5040764;28;20416;-63
2021/10/21 05:46:48;;;;;;;4.50;2.53;;;;;;;12.34;75.24;98020.44;5041637;28;20118;-62
2021/10/21 05:49:32;;;;;;;8.88;2.40;;;;;;;12.34;74.98;98034.25;5041468;28;20052;-63
2021/10/21 05:52:21;;;;;;;7.95;2.60;;;;;;;12.27;74.81;98065.59;5055693;28;20523;-62
2021/10/21 05:55:14;;;;;;;10.77;2.03;;;;;;;12.26;75.14;98100.25;5041206;28;20044;-63
2021/10/21 05:58:12;;;;;;;9.85;2.13;;;;;;;12.23;74.73;98115.91;5041209;28;20511;-62
2021/10/21 06:01:01;;;;;;;18.05;3.28;;;;;;;12.15;74.88;98136.84;5041263;28;20107;-63
2021/10/21 06:03:45;;;;;;;10.07;2.15;;;;;;;12.07;74.96;98138.75;5040515;28;20115;-63
2021/10/21 06:06:36;;;;;;;7.15;2.80;;;;;;;12.05;74.82;98162.16;5055723;28;20040;-63
2021/10/21 06:09:21;;;;;;;7.38;2.40;;;;;;;12.01;74.92;98184.72;5040718;28;20044;-62
2021/10/21 06:12:05;;;;;;;11.40;3.05;;;;;;;12.02;75.06;98202.00;5040781;28;20130;-63
2021/10/21 06:14:50;;;;;;;9.52;2.58;;;;;;;12.05;74.84;98205.44;5040748;28;20412;-62
2021/10/21 06:17:34;;;;;;;8.55;2.70;;;;;;;12.01;74.66;98231.44;5040989;28;20048;-62
2021/10/21 06:20:19;;;;;;;11.45;3.65;;;;;;;12.06;74.83;98235.69;5040787;28;20095;-63
2021/10/21 06:23:02;;;;;;;;;;;;;;;12.06;74.72;98266.84;5056101;28;20044;-62
2021/10/21 06:25:47;;;;;;;4.75;2.28;;;;;;;12.06;75.11;98278.13;5040780;28;19959;-62
2021/10/21 06:28:31;;;;;;;;;;;;;;;12.05;74.57;98279.00;5040894;28;20052;-62
2021/10/21 06:31:16;;;;;;;7.32;2.67;;;;;;;12.09;75.00;98295.38;5040221;28;20433;-62
2021/10/21 06:34:01;;;;;;;22.10;4.20;;;;;;;12.10;74.78;98304.88;5040814;28;20098;-63
2021/10/21 06:36:45;;;;;;;6.05;2.58;;;;;;;12.14;74.65;98316.94;5055721;28;20086;-63
2021/10/21 06:39:29;;;;;;;14.43;3.10;;;;;;;12.11;75.00;98341.19;5054926;28;20051;-62
2021/10/21 06:42:13;;;;;;;7.97;2.78;;;;;;;12.13;74.79;98359.34;5054957;28;20048;-62
2021/10/21 06:44:57;;;;;;;11.55;3.63;;;;;;;12.11;74.71;98367.16;5055384;28;20124;-62
2021/10/21 06:47:45;;;;;;;7.68;2.65;;;;;;;12.10;74.65;98382.78;5055067;28;20091;-62
2021/10/21 06:50:34;;;;;;;10.65;4.03;;;;;;;12.08;74.38;98400.97;5039752;28;20095;-62
2021/10/21 06:53:20;;;;;;;11.88;3.08;;;;;;;12.07;74.42;98394.06;5040076;28;20056;-63
2021/10/21 06:56:05;;;;;;;15.10;3.33;;;;;;;12.07;74.75;98417.41;5039697;28;20067;-62
2021/10/21 06:58:49;;;;;;;12.45;3.50;;;;;;;12.10;74.91;98430.34;5040096;28;20412;-62
2021/10/21 07:01:32;;;;;;;13.65;3.83;;;;;;;12.06;74.81;98443.41;5039935;28;20056;-62
2021/10/21 07:04:21;;;;;;;8.18;2.83;;;;;;;12.08;74.47;98447.69;5039287;28;20110;-62
2021/10/21 07:07:08;;;;;;;9.98;2.70;;;;;;;12.11;74.59;98465.84;5039983;28;20044;-63
2021/10/21 07:09:59;;;;;;;8.70;3.28;;;;;;;12.13;74.60;98478.81;5039571;28;20048;-62
2021/10/21 07:12:46;;;;;;;16.45;3.80;;;;;;;12.15;74.42;98509.06;5039582;28;20601;-63
2021/10/21 07:15:37;;;;;;;13.88;4.15;;;;;;;12.12;74.81;98496.13;5054122;28;20198;-62
2021/10/21 07:18:22;;;;;;;9.75;3.55;;;;;;;12.12;74.54;98518.66;5054515;28;20107;-62
2021/10/21 07:21:15;;;;;;;14.57;3.75;;;;;;;12.09;74.91;98529.06;5054235;28;20107;-62
2021/10/21 07:24:06;;;;;;;8.20;3.50;;;;;;;12.05;74.74;98538.66;5053948;28;20043;-62
2021/10/21 07:26:52;;;;;;;7.88;3.35;;;;;;;12.08;74.74;98563.72;5054443;28;20047;-62
2021/10/21 07:29:46;;;;;;;10.75;3.55;;;;;;;12.09;74.43;98578.41;5039712;28;20052;-62
2021/10/21 07:32:34;;;;;;;9.48;3.13;;;;;;;12.06;74.07;98586.25;5054543;28;20044;-63
2021/10/21 07:35:31;;;;;;;9.45;3.25;;;;;;;12.02;74.46;98599.25;5039403;28;20102;-63
2021/10/21 07:38:24;;;;;;;11.43;3.20;;;;;;;12.01;74.47;98600.13;5038973;28;20047;-63
2021/10/21 07:41:19;;;;;;;9.20;3.28;;;;;;;12.02;74.01;98632.16;5039335;28;20087;-63
2021/10/21 07:44:03;;;;;;;10.80;3.05;;;;;;;11.98;74.32;98639.16;5054296;28;20128;-63
2021/10/21 07:46:50;;;;;;;;;;;;;;;11.97;73.93;98645.19;5038939;28;20098;-63
2021/10/21 07:49:35;;;;;;;6.55;2.85;;;;;;;11.94;74.31;98652.13;5038673;28;20065;-63
2021/10/21 07:52:32;;;;;;;4.90;3.15;;;;;;;11.94;73.81;98662.50;5039124;28;20051;-62
2021/10/21 07:55:21;;;;;;;9.45;2.78;;;;;;;11.96;73.93;98674.63;5039060;28;20051;-63
2021/10/21 07:58:12;;;;;;;11.98;2.78;;;;;;;11.94;73.73;98683.28;5039061;28;20068;-63
2021/10/21 08:00:58;;;;;;;11.55;3.20;;;;;;;11.94;73.80;98691.06;5038756;28;20079;-63
2021/10/21 08:03:45;;;;;;;8.73;3.25;;;;;;;11.91;73.96;98696.31;5053389;28;20066;-62
2021/10/21 08:06:35;;;;;;;9.48;2.80;;;;;;;11.91;74.13;98689.38;5038750;28;20044;-62
2021/10/21 08:09:23;;;;;;;6.63;2.50;;;;;;;11.90;74.00;98699.78;5038832;28;20044;-62
2021/10/21 08:12:10;;;;;;;7.38;3.60;;;;;;;11.90;73.98;98699.78;5038296;28;20079;-62
2021/10/21 08:14:56;;;;;;;11.55;2.88;;;;;;;11.93;73.57;98723.09;5053861;28;20048;-63
2021/10/21 08:17:44;;;;;;;12.52;3.42;;;;;;;11.88;74.19;98704.97;5038187;28;20530;-62
2021/10/21 08:20:34;;;;;;;9.48;2.80;;;;;;;11.91;74.00;98717.09;5038654;28;20080;-63
2021/10/21 08:23:18;;;;;;;6.88;2.70;;;;;;;11.93;73.78;98721.38;5038341;28;20559;-63
2021/10/21 08:26:06;;;;;;;8.45;3.05;;;;;;;11.93;73.68;98723.09;5038365;28;20175;-62
2021/10/21 08:28:56;;;;;;;10.60;3.13;;;;;;;11.91;73.68;98725.72;5053418;28;20043;-62
2021/10/21 08:31:43;;;;;;;8.57;2.28;;;;;;;11.93;73.55;98736.06;5038012;28;20051;-63
2021/10/21 08:34:37;;;;;;;11.30;2.90;;;;;;;11.92;73.56;98745.63;5038163;28;20060;-63
2021/10/21 08:37:22;;;;;;;11.00;2.97;;;;;;;11.89;73.56;98732.66;5038576;28;20087;-62
2021/10/21 08:40:07;;;;;;;8.27;2.83;;;;;;;11.87;73.80;98729.22;5053069;28;20198;-63
2021/10/21 08:42:59;;;;;;;13.40;3.22;;;;;;;11.87;73.45;98732.69;5037904;28;20129;-62
2021/10/21 08:45:51;;;;;;;11.20;2.90;;;;;;;11.92;73.45;98752.53;5037964;28;20044;-63
2021/10/21 08:48:35;;;;;;;11.23;2.60;;;;;;;11.90;73.65;98738.72;5053152;28;20048;-63
2021/10/21 08:51:20;;;;;;;9.30;2.92;;;;;;;11.94;73.81;98743.88;5038458;28;20128;-62
2021/10/21 08:54:04;;;;;;;13.75;3.53;;;;;;;11.96;73.67;98747.31;5037856;28;20052;-62
2021/10/21 08:56:48;;;;;;;8.90;2.80;;;;;;;11.95;73.76;98749.91;5038368;28;20457;-62
2021/10/21 08:59:40;;;;;;;10.27;3.15;;;;;;;11.98;73.53;98755.06;5053121;28;20071;-62
2021/10/21 09:05:51;;;;;;;10.18;3.03;;;;;;;12.03;73.89;98758.53;5053294;28;20098;-62
2021/10/21 09:08:43;;;;;;;8.40;3.22;;;;;;;12.08;73.64;98763.66;5038192;28;20563;-63
2021/10/21 09:11:27;;;;;;;14.32;3.42;;;;;;;12.11;73.39;98779.22;5038425;28;20523;-62
2021/10/21 09:14:14;;;;;;;9.07;3.55;;;;;;;12.11;73.41;98780.06;5052966;28;20168;-62
2021/10/21 09:16:59;;;;;;;12.05;3.05;;;;;;;12.09;73.59;98781.81;5038416;28;20047;-63
2021/10/21 09:19:45;;;;;;;10.82;3.75;;;;;;;12.10;73.39;98786.13;5037988;28;20048;-62
2021/10/21 09:22:34;;;;;;;9.30;2.95;;;;;;;12.12;73.44;98779.19;5037497;28;20086;-62
2021/10/21 09:25:23;;;;;;;11.30;2.78;;;;;;;12.13;73.01;98778.31;5038014;28;20051;-63
2021/10/21 09:28:16;;;;;;;18.05;3.72;;;;;;;12.23;73.14;98789.47;5039995;28;20111;-65
2021/10/21 09:31:04;;;;;;;11.60;3.63;;;;;;;12.30;72.99;98788.50;5041694;28;20106;-73
2021/10/21 09:33:56;;;;;;;29.77;10.95;;;;;;;12.38;72.42;98782.38;5041299;28;20114;-72
2021/10/21 09:36:41;;;;;;;16.65;6.25;;;;;;;12.43;72.85;98788.41;5041709;28;20080;-71
2021/10/21 09:39:25;;;;;;;15.52;5.20;;;;;;;12.41;73.03;98803.13;5056426;28;20079;-71
2021/10/21 09:42:10;;;;;;;12.30;4.07;;;;;;;12.38;72.85;98793.63;5041279;28;20100;-70
2021/10/21 09:45:20;;;;;;;12.52;3.38;;;;;;;12.41;72.54;98797.94;5041330;28;20121;-71
2021/10/21 09:48:06;;;;;;;16.08;4.50;;;;;;;12.38;72.65;98798.81;5041477;28;20075;-63
2021/10/21 09:50:50;;;;;;;14.13;4.55;;;;;;;12.36;72.47;98810.13;5041455;28;20052;-62
2021/10/21 09:53:34;;;;;;;21.17;3.75;;;;;;;12.35;72.95;98819.66;5056246;28;20099;-63
2021/10/21 09:56:18;;;;;;;8.68;3.25;;;;;;;12.35;72.77;98806.66;5055984;28;20044;-63
2021/10/21 09:59:08;;;;;;;16.05;4.32;;;;;;;12.33;72.42;98818.81;5056258;28;20542;-62
2021/10/21 10:01:57;;;;;;;11.02;3.65;;;;;;;12.33;72.29;98808.41;5040829;28;20060;-62
2021/10/21 10:04:52;;;;;;;9.80;2.60;;;;;;;12.30;72.38;98811.88;5041184;28;20048;-62
2021/10/21 10:07:40;;;;;;;12.20;3.50;;;;;;;12.27;72.54;98811.94;5041163;28;20114;-62
2021/10/21 10:10:24;;;;;;;20.95;4.05;;;;;;;12.28;72.46;98810.19;5040495;28;20048;-63
2021/10/21 10:13:15;;;;;;;9.38;2.67;;;;;;;12.29;72.18;98830.09;5055400;28;20121;-62
2021/10/21 10:15:59;;;;;;;11.63;2.60;;;;;;;12.27;72.51;98811.06;5055751;28;20055;-63
2021/10/21 10:18:45;;;;;;;10.52;2.53;;;;;;;12.29;72.44;98827.50;5055406;28;20488;-62
2021/10/21 10:21:34;;;;;;;9.48;2.83;;;;;;;12.30;72.59;98826.63;5040846;28;20048;-62
2021/10/21 10:24:39;;;;;;;10.93;2.95;;;;;;;12.31;72.18;98837.00;5040827;28;20110;-62
2021/10/21 10:27:29;;;;;;;8.63;3.35;;;;;;;12.32;72.61;98845.66;5055463;28;20040;-63
2021/10/21 10:30:33;;;;;;;8.63;2.63;;;;;;;12.32;72.57;98827.47;5040765;28;20079;-62
2021/10/21 10:33:32;;;;;;;12.02;2.47;;;;;;;12.30;72.25;98824.88;5040278;28;20052;-63
2021/10/21 10:36:31;;;;;;;11.57;3.47;;;;;;;12.29;72.28;98822.31;5040556;28;20056;-62
2021/10/21 10:39:48;;;;;;;10.18;2.78;;;;;;;12.30;72.05;98829.22;5054368;28;20044;-62
2021/10/21 10:42:32;;;;;;;11.35;2.95;;;;;;;12.27;72.05;98834.44;5039762;28;20484;-62
2021/10/21 10:45:16;;;;;;;6.13;2.30;;;;;;;12.28;72.41;98831.84;5040315;28;20047;-63
2021/10/21 10:48:00;;;;;;;6.43;2.25;;;;;;;12.24;72.16;98830.16;5054921;28;20043;-62
2021/10/21 10:50:50;;;;;;;9.45;2.65;;;;;;;12.24;71.89;98844.88;5054902;28;20048;-62
2021/10/21 10:53:50;;;;;;;5.55;2.10;;;;;;;12.26;72.03;98830.13;5040269;28;20048;-62
2021/10/21 10:56:39;;;;;;;8.18;3.38;;;;;;;12.31;71.89;98829.19;5040137;28;20166;-62
2021/10/21 10:59:35;;;;;;;5.57;2.28;;;;;;;12.35;72.08;98848.25;5039412;28;20071;-62
2021/10/21 11:02:28;;;;;;;6.90;2.30;;;;;;;12.40;71.82;98846.44;5054628;28;20059;-62
2021/10/21 11:05:17;;;;;;;6.90;2.40;;;;;;;12.43;72.25;98866.34;5040041;28;20048;-62
2021/10/21 11:08:07;;;;;;;12.73;2.20;;;;;;;12.43;72.10;98849.00;5039608;28;20044;-62
2021/10/21 11:10:57;;;;;;;10.98;2.67;;;;;;;12.44;71.98;98848.13;5040053;28;20086;-62
2021/10/21 11:13:47;;;;;;;9.02;2.65;;;;;;;12.45;71.73;98851.59;5039428;28;20574;-62
2021/10/21 11:16:41;;;;;;;9.02;2.30;;;;;;;12.45;71.80;98844.66;5039570;28;20118;-63
2021/10/21 11:19:52;;;;;;;8.70;2.50;;;;;;;12.46;72.15;98851.56;5039111;28;20120;-62
2021/10/21 11:22:38;;;;;;;9.85;2.47;;;;;;;12.45;72.17;98864.59;5039570;28;20048;-62
2021/10/21 11:25:36;;;;;;;11.07;2.85;;;;;;;12.46;71.63;98856.78;5039643;28;20492;-63
2021/10/21 11:28:38;;;;;;;10.93;2.60;;;;;;;12.48;71.79;98862.81;5053914;28;20087;-62
2021/10/21 11:31:33;;;;;;;9.07;2.58;;;;;;;12.49;71.94;98871.47;5038996;28;20503;-62
2021/10/21 11:34:28;;;;;;;8.98;2.55;;;;;;;12.47;72.05;98886.22;5039375;28;20052;-63
2021/10/21 11:37:15;;;;;;;10.38;2.83;;;;;;;12.45;71.92;98862.84;5039137;28;20134;-63
2021/10/21 11:40:03;;;;;;;15.85;3.08;;;;;;;12.43;71.68;98871.53;5038955;28;20116;-63
2021/10/21 11:42:56;;;;;;;7.93;3.20;;;;;;;12.40;71.82;98888.00;5039081;28;20139;-62
2021/10/21 11:45:47;;;;;;;10.82;2.90;;;;;;;12.39;71.69;98894.06;5039005;28;20099;-62
2021/10/21 11:48:40;;;;;;;7.15;2.72;;;;;;;12.41;71.72;98922.66;5038857;28;20056;-63
2021/10/21 11:51:35;;;;;;;13.48;3.13;;;;;;;12.38;72.06;98920.94;5039011;28;20047;-62
2021/10/21 11:54:27;;;;;;;11.30;3.08;;;;;;;12.37;71.91;98924.44;5053940;28;20040;-62
2021/10/21 11:57:16;;;;;;;10.38;3.17;;;;;;;12.34;72.26;98932.25;5038603;28;20052;-62
2021/10/21 12:00:29;;;;;;;8.00;2.88;;;;;;;12.29;72.52;98928.81;5038919;28;20047;-62
2021/10/21 12:03:19;;;;;;;7.78;2.53;;;;;;;12.29;72.56;98937.50;5038464;28;20118;-62
2021/10/21 12:06:07;;;;;;;9.05;2.72;;;;;;;12.29;72.29;98926.22;5038423;28;20044;-62
2021/10/21 12:08:58;;;;;;;9.75;3.00;;;;;;;12.28;72.50;98945.28;5038592;28;20067;-61
2021/10/21 12:11:47;;;;;;;8.13;3.47;;;;;;;12.29;72.31;98958.28;5053980;28;20511;-61
2021/10/21 12:14:45;;;;;;;11.20;3.42;;;;;;;12.27;72.51;98959.16;5053416;28;20048;-61
2021/10/21 12:17:35;;;;;;;12.50;3.13;;;;;;;12.28;72.77;98972.13;5038384;28;20099;-61
2021/10/21 12:21:03;;;;;;;11.65;3.35;;;;;;;12.22;73.05;98961.78;5038628;28;20052;-61
2021/10/21 12:23:53;;;;;;;8.18;2.95;;;;;;;12.20;73.15;98957.50;5053121;28;20048;-61
2021/10/21 12:26:51;;;;;;;7.78;2.53;;;;;;;12.21;73.07;98959.22;5053669;28;20051;-61
2021/10/21 12:29:44;;;;;;;8.25;2.67;;;;;;;12.22;73.23;98960.94;5038430;28;20102;-61
2021/10/21 12:32:38;;;;;;;11.00;3.20;;;;;;;12.16;72.78;98967.91;5038441;28;20098;-61
2021/10/21 12:35:30;;;;;;;9.23;3.05;;;;;;;12.16;72.80;98961.81;5037998;28;20044;-61
2021/10/21 12:38:24;;;;;;;7.50;2.15;;;;;;;12.15;72.86;98967.88;5037989;28;20048;-63
2021/10/21 12:41:20;;;;;;;8.07;2.58;;;;;;;12.13;73.23;98980.06;5038087;28;20044;-61
2021/10/21 12:44:10;;;;;;;9.07;3.22;;;;;;;12.09;73.31;98978.34;5052761;28;20064;-61
2021/10/21 12:47:12;;;;;;;8.57;2.63;;;;;;;12.07;73.39;98999.09;5038212;28;20511;-61
2021/10/21 12:50:11;;;;;;;6.30;1.88;;;;;;;12.08;73.31;98994.78;5038186;28;20087;-61
2021/10/21 12:53:00;;;;;;;8.52;2.60;;;;;;;12.09;73.10;99005.16;5038205;28;20052;-61
2021/10/21 12:55:50;;;;;;;8.43;2.70;;;;;;;12.07;73.09;99014.69;5038385;28;20048;-61
2021/10/21 12:58:45;;;;;;;7.78;2.67;;;;;;;12.05;73.07;99011.28;5052926;28;20056;-61
2021/10/21 13:01:54;;;;;;;4.95;2.25;;;;;;;12.00;73.13;99023.41;5037509;28;20052;-63
2021/10/21 13:04:54;;;;;;;5.57;2.97;;;;;;;11.98;73.32;99033.81;5057137;28;20106;-63
2021/10/21 13:07:50;;;;;;;6.30;1.65;;;;;;;11.96;72.93;99037.25;5042283;28;20126;-63
2021/10/21 13:10:39;;;;;;;4.53;1.85;;;;;;;11.94;72.85;99018.22;5041778;28;20105;-63
2021/10/21 13:13:30;;;;;;;4.80;1.85;;;;;;;11.93;73.23;99014.75;5041958;28;20064;-63
2021/10/21 13:16:19;;;;;;;5.82;2.00;;;;;;;11.96;72.96;99019.06;5056561;28;20090;-63
2021/10/21 13:19:09;;;;;;;4.50;1.60;;;;;;;11.95;72.92;99020.81;5042145;28;20048;-62